Time;durP1;ratioP1;P1;durP2;ratioP2;P2;SDS_P1;SDS_P2;PMS_P1;PMS_P2;Temp;Humidity;BMP_temperature;BMP_pressure;BME280_temperature;BME280_humidity;BME280_pressure;Samples;Min_cycle;Max_cycle;Signal;HPM_P1;HPM_P2
2023/05/09 00:01:44;;;;;;;4.80;4.40;;;;;;;12.44;61.23;102016.34;5011264;28;20468;-40
2023/05/09 00:04:56;;;;;;;4.43;4.23;;;;;;;12.42;61.07;102019.22;5005475;28;20472;-40
2023/05/09 00:07:29;;;;;;;4.70;4.40;;;;;;;12.40;61.46;102015.03;5013382;28;20506;-40
2023/05/09 00:10:08;;;;;;;5.00;4.77;;;;;;;12.36;61.40;102011.91;5010711;28;20981;-41
2023/05/09 00:12:49;;;;;;;5.20;4.80;;;;;;;12.31;61.43;101998.22;5012347;28;20429;-40
2023/05/09 00:16:10;;;;;;;4.90;4.60;;;;;;;12.30;62.42;102004.59;5009002;28;20472;-39
2023/05/09 00:19:13;;;;;;;4.97;4.67;;;;;;;12.26;62.75;101995.25;5011908;28;20417;-45
2023/05/09 00:22:11;;;;;;;5.03;4.60;;;;;;;12.24;62.50;101981.22;5010881;28;20470;-40
2023/05/09 00:25:09;;;;;;;5.63;4.53;;;;;;;12.21;62.52;101982.38;5010039;28;20460;-40
2023/05/09 00:28:11;;;;;;;6.93;4.90;;;;;;;12.18;63.07;101982.75;5011220;28;20544;-40
2023/05/09 00:31:01;;;;;;;5.63;5.10;;;;;;;12.13;63.58;101974.44;5007279;28;20552;-40
2023/05/09 00:33:46;;;;;;;4.77;4.47;;;;;;;12.11;63.76;101976.47;5010063;28;21061;-39
2023/05/09 00:36:16;;;;;;;7.10;5.00;;;;;;;12.07;64.38;101977.81;5003328;28;20472;-43
2023/05/09 00:39:23;;;;;;;5.00;4.73;;;;;;;12.07;64.29;101985.00;5010482;28;20781;-39
2023/05/09 00:42:20;;;;;;;5.60;4.60;;;;;;;12.05;64.50;101981.66;5009525;28;20472;-39
2023/05/09 00:44:58;;;;;;;4.87;4.57;;;;;;;12.00;65.55;101979.53;5010004;28;20580;-41
2023/05/09 00:47:46;;;;;;;5.13;4.63;;;;;;;11.99;65.23;101969.00;4983975;28;20472;-39
2023/05/09 00:51:04;;;;;;;4.97;4.60;;;;;;;11.96;65.21;101972.88;5009821;28;20682;-39
2023/05/09 00:54:05;;;;;;;4.80;4.50;;;;;;;11.95;65.20;101970.34;5010023;28;20415;-40
2023/05/09 00:57:02;;;;;;;5.13;4.83;;;;;;;11.91;65.62;101977.91;5009112;28;21188;-42
2023/05/09 00:59:36;;;;;;;5.23;4.87;;;;;;;11.89;65.65;101963.03;5009527;28;20437;-40
2023/05/09 01:02:08;;;;;;;5.00;4.60;;;;;;;11.86;65.93;101963.38;5011194;28;20565;-40
2023/05/09 01:04:45;;;;;;;5.90;5.40;;;;;;;11.83;66.22;101961.06;5011660;28;20452;-40
2023/05/09 01:07:42;;;;;;;4.87;4.57;;;;;;;11.78;66.77;101958.09;5008446;28;20468;-41
2023/05/09 01:11:15;;;;;;;4.90;4.50;;;;;;;11.74;67.46;101952.25;5011032;28;20507;-39
2023/05/09 01:14:16;;;;;;;5.10;4.80;;;;;;;11.73;67.71;101952.44;5009306;28;20425;-39
2023/05/09 01:17:31;;;;;;;7.40;5.03;;;;;;;11.71;67.46;101951.81;5005261;28;20483;-41
2023/05/09 01:21:21;;;;;;;5.43;4.80;;;;;;;11.71;67.54;101949.13;5010014;28;20798;-44
2023/05/09 01:24:52;;;;;;;4.77;4.47;;;;;;;11.72;69.01;101945.44;5011072;28;20471;-43
2023/05/09 01:28:19;;;;;;;4.73;4.43;;;;;;;11.74;68.79;101938.09;5004715;28;20550;-40
2023/05/09 01:31:56;;;;;;;4.90;4.60;;;;;;;11.75;68.58;101926.38;5009205;28;20408;-40
2023/05/09 01:35:11;;;;;;;5.00;4.70;;;;;;;11.78;68.46;101926.03;5010863;28;20429;-42
2023/05/09 01:38:31;;;;;;;5.70;5.20;;;;;;;11.78;68.53;101929.53;5009245;28;20566;-41
2023/05/09 01:41:45;;;;;;;5.20;4.90;;;;;;;11.76;68.66;101922.69;5009655;28;20523;-41
2023/05/09 01:44:21;;;;;;;5.53;5.23;;;;;;;11.73;68.92;101918.53;5009066;28;20946;-39
2023/05/09 01:47:25;;;;;;;6.00;5.13;;;;;;;11.68;68.95;101925.41;5006881;28;20488;-40
2023/05/09 01:50:01;;;;;;;6.00;5.40;;;;;;;11.66;68.82;101923.72;5008599;28;20772;-45
2023/05/09 01:52:30;;;;;;;5.60;5.30;;;;;;;11.64;69.39;101914.22;5011392;28;20429;-40
2023/05/09 01:55:12;;;;;;;5.97;5.57;;;;;;;11.61;69.41;101920.75;5011375;28;20429;-44
2023/05/09 01:58:10;;;;;;;5.20;4.90;;;;;;;11.57;69.64;101918.59;5009644;28;20825;-39
2023/05/09 02:00:47;;;;;;;5.70;5.20;;;;;;;11.55;70.31;101921.44;5009828;28;20444;-41
2023/05/09 02:03:23;;;;;;;7.43;6.00;;;;;;;11.54;70.30;101919.78;5008365;28;20437;-42
2023/05/09 02:05:59;;;;;;;5.73;5.33;;;;;;;11.52;70.76;101920.97;4959963;28;20464;-39
2023/05/09 02:09:00;;;;;;;4.80;4.60;;;;;;;11.49;71.04;101911.47;5009213;28;20933;-44
2023/05/09 02:11:28;;;;;;;5.97;5.57;;;;;;;11.46;72.02;101913.63;5010127;28;20436;-39
2023/05/09 02:13:55;;;;;;;5.40;5.10;;;;;;;11.44;72.04;101902.31;5009377;28;20827;-42
2023/05/09 02:16:23;;;;;;;5.67;5.27;;;;;;;11.43;72.84;101901.47;5006521;28;20465;-39
2023/05/09 02:18:52;;;;;;;6.03;5.60;;;;;;;11.40;72.91;101900.97;5007947;28;20443;-42
2023/05/09 02:21:20;;;;;;;5.37;5.03;;;;;;;11.38;73.42;101901.13;5008744;28;20468;-44
2023/05/09 02:23:48;;;;;;;5.23;4.73;;;;;;;11.34;73.71;101897.16;5008600;28;20460;-40
2023/05/09 02:26:16;;;;;;;6.10;5.60;;;;;;;11.34;73.94;101891.81;5007061;28;20472;-40
2023/05/09 02:28:46;;;;;;;5.57;5.10;;;;;;;11.30;74.86;101882.50;5010548;28;20767;-41
2023/05/09 02:31:16;;;;;;;5.47;5.07;;;;;;;11.29;74.84;101863.97;5009570;28;20426;-42
2023/05/09 02:33:46;;;;;;;5.77;5.37;;;;;;;11.29;74.31;101874.66;5010713;28;20433;-40
2023/05/09 02:36:16;;;;;;;8.83;5.73;;;;;;;11.28;74.53;101881.84;5010273;28;20548;-40
2023/05/09 02:38:44;;;;;;;4.67;4.43;;;;;;;11.26;75.95;101880.34;5009121;28;20821;-40
2023/05/09 02:41:14;;;;;;;5.93;5.40;;;;;;;11.25;75.91;101884.84;5009504;28;20476;-40
2023/05/09 02:43:42;;;;;;;5.90;5.60;;;;;;;11.23;76.55;101875.34;5007915;28;20662;-41
2023/05/09 02:46:10;;;;;;;5.53;5.13;;;;;;;11.20;76.96;101876.50;5006769;28;20474;-41
2023/05/09 02:48:37;;;;;;;5.70;5.40;;;;;;;11.16;77.94;101875.22;5012985;28;21031;-41
2023/05/09 02:51:05;;;;;;;5.83;5.33;;;;;;;11.13;79.25;101866.72;5012354;28;20428;-40
2023/05/09 02:53:34;;;;;;;5.13;4.70;;;;;;;11.11;79.53;101869.53;5013404;28;20433;-42
2023/05/09 02:56:02;;;;;;;7.87;5.63;;;;;;;11.08;79.45;101867.22;5013690;28;20807;-39
2023/05/09 02:58:30;;;;;;;6.03;5.53;;;;;;;11.08;80.15;101867.22;5013128;28;20464;-39
2023/05/09 03:00:58;;;;;;;5.73;5.30;;;;;;;11.06;80.53;101861.22;5012022;28;20432;-39
2023/05/09 03:03:25;;;;;;;5.83;5.43;;;;;;;11.01;81.81;101858.25;5013236;28;20835;-40
2023/05/09 03:05:53;;;;;;;5.97;5.57;;;;;;;11.01;81.60;101850.25;5010324;28;20532;-40
2023/05/09 03:08:21;;;;;;;6.00;5.50;;;;;;;10.97;83.14;101862.25;5011425;28;20965;-40
2023/05/09 03:10:50;;;;;;;5.93;5.60;;;;;;;10.96;83.82;101853.41;5011696;28;20436;-42
2023/05/09 03:13:17;;;;;;;7.00;6.20;;;;;;;10.97;82.62;101864.91;5011183;28;20425;-40
2023/05/09 03:15:45;;;;;;;6.53;6.13;;;;;;;10.96;83.68;101852.59;5013412;28;20433;-40
2023/05/09 03:18:13;;;;;;;7.63;6.43;;;;;;;10.94;85.02;101849.25;5012487;28;20444;-41
2023/05/09 03:20:40;;;;;;;5.90;5.50;;;;;;;10.91;84.60;101842.44;5014057;28;20809;-42
2023/05/09 03:23:08;;;;;;;6.00;5.60;;;;;;;10.93;85.17;101832.41;5012296;28;20508;-39
2023/05/09 03:25:36;;;;;;;8.70;6.03;;;;;;;10.88;87.71;101832.09;5012478;28;20938;-40
2023/05/09 03:28:05;;;;;;;6.73;6.13;;;;;;;10.88;87.15;101832.09;5011724;28;20551;-40
2023/05/09 03:30:33;;;;;;;6.40;5.90;;;;;;;10.87;87.67;101826.94;5013639;28;20905;-40
2023/05/09 03:33:00;;;;;;;6.23;5.73;;;;;;;10.85;89.02;101826.25;5013519;28;20437;-39
2023/05/09 03:35:28;;;;;;;7.00;6.40;;;;;;;10.84;89.61;101824.63;5012685;28;20960;-41
2023/05/09 03:37:56;;;;;;;6.40;5.90;;;;;;;10.82;90.13;101824.78;5010323;28;20469;-41
2023/05/09 03:40:23;;;;;;;6.73;6.13;;;;;;;10.83;90.73;101823.78;5012421;28;20961;-40
2023/05/09 03:42:51;;;;;;;6.23;5.83;;;;;;;10.83;90.73;101823.78;5013260;28;20476;-40
2023/05/09 03:45:21;;;;;;;6.60;6.20;;;;;;;10.85;90.90;101812.91;5010946;28;20468;-40
2023/05/09 03:47:48;;;;;;;11.50;7.23;;;;;;;10.82;92.58;101821.28;5011014;28;20897;-41
2023/05/09 03:50:16;;;;;;;7.50;7.00;;;;;;;10.83;92.46;101820.28;5011912;28;20433;-41
2023/05/09 03:52:44;;;;;;;6.10;5.67;;;;;;;10.81;93.85;101824.97;5010789;28;20433;-41
2023/05/09 03:55:11;;;;;;;7.50;6.70;;;;;;;10.83;93.94;101817.59;5010878;28;20545;-40
2023/05/09 03:57:39;;;;;;;7.00;6.50;;;;;;;10.86;94.66;101825.28;5010843;28;20469;-41
2023/05/09 04:00:09;;;;;;;6.57;6.17;;;;;;;10.90;93.26;101826.59;5009896;28;20445;-40
2023/05/09 04:02:38;;;;;;;6.97;6.53;;;;;;;10.96;93.35;101825.91;5011537;28;21202;-40
2023/05/09 04:05:06;;;;;;;7.80;6.40;;;;;;;11.02;93.64;101822.56;5012444;28;20437;-39
2023/05/09 04:07:34;;;;;;;6.50;6.00;;;;;;;11.12;92.35;101817.81;5011960;28;20484;-39
2023/05/09 04:10:02;;;;;;;5.93;5.53;;;;;;;11.25;91.77;101833.28;5011502;28;20439;-39
2023/05/09 04:12:29;;;;;;;5.97;5.47;;;;;;;11.33;91.25;101826.06;5011760;28;20858;-40
2023/05/09 04:14:57;;;;;;;7.00;6.30;;;;;;;11.47;90.58;101822.63;5012015;28;20449;-48
2023/05/09 04:17:25;;;;;;;6.43;5.93;;;;;;;11.65;89.52;101823.19;5010837;28;20469;-39
2023/05/09 04:19:54;;;;;;;7.30;6.83;;;;;;;11.79;88.82;101813.63;5012212;28;20452;-39
2023/05/09 04:22:22;;;;;;;6.97;6.27;;;;;;;11.97;86.91;101813.31;5012273;28;20472;-39
2023/05/09 04:24:49;;;;;;;7.17;6.77;;;;;;;11.97;85.75;101814.16;5012465;28;20926;-39
2023/05/09 04:27:17;;;;;;;9.10;6.90;;;;;;;12.21;85.96;101815.78;5011255;28;20472;-44
2023/05/09 04:29:45;;;;;;;5.87;5.57;;;;;;;12.84;83.10;101815.28;5012121;28;20468;-40
2023/05/09 04:32:12;;;;;;;6.20;5.70;;;;;;;13.45;76.98;101805.97;5013029;28;20436;-41
2023/05/09 04:34:40;;;;;;;7.50;6.20;;;;;;;14.02;71.54;101815.81;5009635;28;20448;-40
2023/05/09 04:37:09;;;;;;;7.63;6.87;;;;;;;14.46;70.17;101813.72;5004089;28;20481;-42
2023/05/09 04:39:37;;;;;;;7.53;7.03;;;;;;;14.97;68.83;101816.91;5012441;28;20436;-39
2023/05/09 04:42:05;;;;;;;6.20;5.90;;;;;;;15.74;66.50;101811.22;5010768;28;20437;-39
2023/05/09 04:44:34;;;;;;;6.53;6.03;;;;;;;16.50;63.58;101813.28;5010093;28;20432;-43
2023/05/09 04:47:02;;;;;;;7.20;6.50;;;;;;;17.21;59.75;101813.31;5004503;28;20974;-40
2023/05/09 04:49:31;;;;;;;7.00;6.43;;;;;;;17.81;58.40;101808.44;5011957;28;20456;-43
2023/05/09 04:51:58;;;;;;;6.93;6.50;;;;;;;17.84;57.23;101808.81;5010962;28;20437;-41
2023/05/09 04:54:27;;;;;;;6.07;5.73;;;;;;;17.25;54.88;101808.31;5009630;28;20803;-42
2023/05/09 04:56:55;;;;;;;7.30;6.80;;;;;;;16.57;55.84;101802.53;5009182;28;20464;-43
2023/05/09 04:59:40;;;;;;;7.17;6.57;;;;;;;15.93;58.08;101795.09;5009538;28;20440;-40
2023/05/09 05:02:08;;;;;;;9.83;6.83;;;;;;;15.21;58.89;101791.38;5010034;28;20444;-40
2023/05/09 05:04:36;;;;;;;6.40;6.00;;;;;;;14.81;60.41;101788.50;5009222;28;20442;-45
2023/05/09 05:07:04;;;;;;;7.83;6.47;;;;;;;14.23;62.98;101789.78;5009739;28;20460;-42
2023/05/09 05:09:33;;;;;;;7.93;7.43;;;;;;;14.06;64.33;101790.25;5011120;28;20447;-43
2023/05/09 05:12:00;;;;;;;6.83;6.43;;;;;;;13.95;65.84;101794.28;5008838;28;20986;-40
2023/05/09 05:14:31;;;;;;;8.00;7.50;;;;;;;13.97;66.98;101784.22;5009758;28;20464;-41
2023/05/09 05:16:59;;;;;;;7.57;6.90;;;;;;;14.60;66.68;101796.69;5008436;28;20461;-42
2023/05/09 05:19:26;;;;;;;7.17;6.67;;;;;;;14.96;65.76;101801.84;5013518;28;20444;-46
2023/05/09 05:21:54;;;;;;;8.23;7.53;;;;;;;15.44;64.76;101800.75;5012208;28;20437;-42
2023/05/09 05:24:22;;;;;;;7.63;7.03;;;;;;;16.10;61.58;101800.06;5012988;28;20523;-41
2023/05/09 05:26:51;;;;;;;7.60;7.00;;;;;;;16.36;62.34;101794.66;5012197;28;20456;-41
2023/05/09 05:29:20;;;;;;;6.80;6.20;;;;;;;16.00;60.87;101790.53;5011629;28;20448;-40
2023/05/09 05:31:48;;;;;;;7.03;6.53;;;;;;;15.96;59.60;101783.91;5013599;28;20441;-41
2023/05/09 05:34:16;;;;;;;13.03;7.10;;;;;;;15.67;60.34;101784.31;5013407;28;20429;-42
2023/05/09 05:36:44;;;;;;;7.00;6.50;;;;;;;15.43;60.28;101771.41;5013190;28;20495;-41
2023/05/09 05:39:11;;;;;;;7.13;6.67;;;;;;;15.15;60.93;101766.16;5011487;28;20473;-41
2023/05/09 05:41:39;;;;;;;8.20;6.20;;;;;;;14.85;61.67;101760.25;5012985;28;20433;-45
2023/05/09 05:44:08;;;;;;;7.10;6.60;;;;;;;15.07;62.53;101765.50;5012527;28;20560;-39
2023/05/09 05:46:37;;;;;;;7.53;7.03;;;;;;;15.36;61.15;101751.72;5013343;28;20457;-44
2023/05/09 05:49:05;;;;;;;12.03;7.30;;;;;;;16.57;59.14;101751.38;5009588;28;20461;-41
2023/05/09 05:51:32;;;;;;;7.23;6.63;;;;;;;17.95;56.89;101737.16;5011182;28;20437;-41
2023/05/09 05:54:00;;;;;;;7.57;7.07;;;;;;;18.90;52.10;101731.16;5011833;28;20487;-40
2023/05/09 05:56:29;;;;;;;7.67;6.97;;;;;;;19.82;51.25;101732.53;5012833;28;20539;-40
2023/05/09 05:58:57;;;;;;;7.27;6.57;;;;;;;20.86;46.89;101726.22;5012680;28;20468;-44
2023/05/09 06:01:27;;;;;;;6.60;6.20;;;;;;;20.92;44.45;101719.84;5012524;28;20427;-42
2023/05/09 06:03:55;;;;;;;7.33;6.53;;;;;;;21.48;43.64;101725.25;5012384;28;20472;-41
2023/05/09 06:06:24;;;;;;;6.67;5.93;;;;;;;21.82;42.67;101717.97;5013205;28;20464;-44
2023/05/09 06:08:52;;;;;;;6.67;6.20;;;;;;;22.46;43.70;101727.34;5012470;28;20456;-41
2023/05/09 06:11:20;;;;;;;6.43;6.07;;;;;;;22.82;41.58;101731.38;5012418;28;20432;-40
2023/05/09 06:13:48;;;;;;;8.77;6.40;;;;;;;22.94;41.71;101726.63;5013513;28;20774;-42
2023/05/09 06:16:15;;;;;;;6.00;5.60;;;;;;;23.53;40.81;101722.13;5014823;28;20787;-46
2023/05/09 06:18:48;;;;;;;6.40;6.10;;;;;;;23.55;38.25;101714.50;5000688;28;20476;-44
2023/05/09 06:21:16;;;;;;;6.77;6.23;;;;;;;24.04;39.11;101712.41;5012154;28;20457;-45
2023/05/09 06:23:43;;;;;;;6.97;6.47;;;;;;;24.42;37.03;101711.34;5011201;28;20483;-43
2023/05/09 06:26:31;;;;;;;7.50;6.80;;;;;;;24.55;38.11;101713.56;5012222;28;20431;-46
2023/05/09 06:28:59;;;;;;;6.73;6.33;;;;;;;24.91;36.24;101716.47;5012233;28;20463;-44
2023/05/09 06:31:27;;;;;;;8.37;5.67;;;;;;;24.87;34.66;101709.91;5012360;28;21071;-43
2023/05/09 06:33:56;;;;;;;6.97;6.47;;;;;;;25.10;37.56;101712.16;5011467;28;20854;-49
2023/05/09 06:36:24;;;;;;;7.43;6.93;;;;;;;24.66;35.33;101704.34;5011622;28;20428;-44
2023/05/09 06:38:51;;;;;;;7.00;6.30;;;;;;;25.04;34.94;101699.56;5011386;28;20472;-42
2023/05/09 06:41:20;;;;;;;6.80;6.20;;;;;;;25.04;34.82;101699.56;5011199;28;21167;-42
2023/05/09 06:43:48;;;;;;;8.10;6.37;;;;;;;24.74;34.95;101676.56;5011805;28;20842;-43
2023/05/09 06:46:16;;;;;;;6.67;6.27;;;;;;;25.16;37.26;101676.41;5011771;28;20443;-45
2023/05/09 06:48:44;;;;;;;6.90;6.20;;;;;;;25.26;35.49;101670.97;4985156;28;20488;-44
2023/05/09 06:51:13;;;;;;;6.70;6.30;;;;;;;25.33;34.64;101665.22;5010772;28;20437;-42
2023/05/09 06:53:41;;;;;;;6.33;5.93;;;;;;;24.96;35.85;101664.63;5011301;28;20772;-44
2023/05/09 06:56:09;;;;;;;6.50;5.90;;;;;;;25.08;35.58;101673.41;5011634;28;20464;-47
2023/05/09 06:58:37;;;;;;;6.20;5.80;;;;;;;25.40;34.51;101663.03;5010717;28;20465;-44
2023/05/09 07:01:05;;;;;;;6.80;5.70;;;;;;;24.86;35.00;101664.59;5011936;28;20421;-44
2023/05/09 07:03:32;;;;;;;6.07;5.77;;;;;;;24.99;35.71;101645.00;5011726;28;20479;-43
2023/05/09 07:06:00;;;;;;;7.47;6.90;;;;;;;24.67;35.50;101651.41;5012490;28;20826;-44
2023/05/09 07:08:29;;;;;;;6.70;6.30;;;;;;;24.72;35.70;101642.44;5005820;28;20473;-42
2023/05/09 07:10:58;;;;;;;9.80;7.00;;;;;;;25.32;35.50;101636.28;5012437;28;20433;-49
2023/05/09 07:13:26;;;;;;;7.33;6.50;;;;;;;25.61;34.84;101633.84;5011287;28;20429;-44
2023/05/09 07:15:53;;;;;;;7.03;6.63;;;;;;;25.72;35.96;101633.56;5010628;28;20834;-44
2023/05/09 07:18:21;;;;;;;5.80;5.40;;;;;;;25.62;34.62;101633.59;5010859;28;20822;-42
2023/05/09 07:20:49;;;;;;;6.60;6.20;;;;;;;25.68;35.07;101632.47;5011943;28;20433;-44
2023/05/09 07:23:17;;;;;;;8.17;7.37;;;;;;;25.10;34.99;101635.72;5011038;28;20808;-40
2023/05/09 07:25:46;;;;;;;6.23;5.93;;;;;;;25.27;35.68;101641.72;5011467;28;20432;-43
2023/05/09 07:28:14;;;;;;;7.37;6.83;;;;;;;25.00;34.72;101644.72;5011001;28;20457;-42
2023/05/09 07:30:42;;;;;;;6.50;6.10;;;;;;;24.75;35.35;101640.00;5012096;28;20515;-42
2023/05/09 07:33:10;;;;;;;7.10;6.60;;;;;;;24.33;35.71;101630.31;5013275;28;20785;-48
2023/05/09 07:35:38;;;;;;;6.30;5.67;;;;;;;24.39;36.07;101618.34;5014766;28;20428;-43
2023/05/09 07:38:06;;;;;;;6.57;6.17;;;;;;;24.42;36.34;101617.81;5014568;28;20473;-47
2023/05/09 07:40:35;;;;;;;7.10;6.47;;;;;;;24.02;36.53;101615.69;5015967;28;20755;-42
2023/05/09 07:43:04;;;;;;;6.80;6.40;;;;;;;23.67;36.97;101616.28;5015685;28;20984;-43
2023/05/09 07:45:32;;;;;;;7.13;6.43;;;;;;;23.26;37.79;101609.69;5016814;28;20471;-47
2023/05/09 07:48:00;;;;;;;6.27;5.90;;;;;;;23.23;38.11;101603.94;5008837;28;20448;-42
2023/05/09 07:50:28;;;;;;;6.27;5.87;;;;;;;23.09;37.98;101604.38;5016411;28;20436;-42
2023/05/09 07:52:55;;;;;;;6.83;6.53;;;;;;;22.96;38.72;101595.81;5016770;28;20433;-40
2023/05/09 07:55:23;;;;;;;7.10;6.60;;;;;;;22.33;40.51;101602.75;5015235;28;20507;-41
2023/05/09 07:57:51;;;;;;;8.50;7.90;;;;;;;21.87;41.15;101584.16;5014677;28;20810;-41
2023/05/09 08:00:22;;;;;;;13.80;7.10;;;;;;;21.62;42.39;101581.94;5010048;28;20479;-45
2023/05/09 08:02:50;;;;;;;7.00;6.60;;;;;;;21.17;42.44;101592.06;5017323;28;20842;-42
2023/05/09 08:05:18;;;;;;;6.47;6.10;;;;;;;21.15;42.97;101588.75;5016546;28;20990;-43
2023/05/09 08:07:46;;;;;;;7.90;7.27;;;;;;;20.93;42.75;101592.19;5015764;28;20970;-43
2023/05/09 08:10:14;;;;;;;8.07;7.37;;;;;;;20.78;43.91;101591.06;5015849;28;20471;-46
2023/05/09 08:12:41;;;;;;;7.17;6.77;;;;;;;20.87;44.54;101584.19;5017118;28;20443;-41
2023/05/09 08:15:10;;;;;;;8.13;7.43;;;;;;;20.77;44.28;101565.84;5016324;28;20504;-46
2023/05/09 08:17:38;;;;;;;7.73;6.97;;;;;;;21.08;44.59;101566.38;5014801;28;20842;-44
2023/05/09 08:20:07;;;;;;;8.00;7.40;;;;;;;21.01;44.95;101569.25;5008059;28;20526;-42
2023/05/09 08:22:36;;;;;;;8.07;7.47;;;;;;;21.23;44.39;101559.34;5014444;28;20428;-46
2023/05/09 08:25:03;;;;;;;7.23;6.83;;;;;;;20.79;45.03;101561.00;5014414;28;20554;-43
2023/05/09 08:27:31;;;;;;;7.90;7.30;;;;;;;20.86;44.49;101564.38;5013604;28;20673;-40
2023/05/09 08:29:59;;;;;;;7.67;6.80;;;;;;;21.21;44.18;101563.34;5013499;28;20465;-41
2023/05/09 08:32:27;;;;;;;8.03;7.40;;;;;;;20.88;44.33;101559.53;5013013;28;20834;-42
2023/05/09 08:34:56;;;;;;;7.37;6.87;;;;;;;20.92;44.63;101563.41;5013748;28;20641;-40
2023/05/09 08:37:23;;;;;;;6.90;6.50;;;;;;;20.95;44.42;101564.81;5014533;28;20472;-42
2023/05/09 08:39:51;;;;;;;7.47;6.80;;;;;;;20.86;44.85;101552.72;5014683;28;20459;-43
2023/05/09 08:42:21;;;;;;;8.20;7.40;;;;;;;20.62;45.27;101559.31;5015048;28;20441;-41
2023/05/09 08:44:52;;;;;;;8.50;7.90;;;;;;;20.57;45.93;101553.81;5015565;28;20472;-41
2023/05/09 08:47:21;;;;;;;7.07;6.63;;;;;;;20.42;46.19;101554.34;5012975;28;20522;-42
2023/05/09 08:49:50;;;;;;;8.23;7.43;;;;;;;20.44;46.51;101549.50;5008584;28;20542;-45
2023/05/09 08:52:20;;;;;;;7.07;6.67;;;;;;;20.65;47.09;101542.56;5013803;28;20432;-41
2023/05/09 08:54:48;;;;;;;7.27;6.87;;;;;;;20.64;46.41;101549.06;5012911;28;20452;-42
2023/05/09 08:57:16;;;;;;;8.43;7.73;;;;;;;20.83;46.51;101545.91;5014673;28;20662;-43
2023/05/09 08:59:44;;;;;;;8.13;7.63;;;;;;;20.96;46.50;101544.75;5014570;28;21020;-41
2023/05/09 09:02:14;;;;;;;7.47;6.90;;;;;;;20.97;46.68;101538.25;5014998;28;20460;-43
2023/05/09 09:04:43;;;;;;;8.23;7.60;;;;;;;21.04;46.39;101544.34;5013384;28;20989;-43
2023/05/09 09:07:13;;;;;;;8.50;7.70;;;;;;;21.16;46.29;101534.28;5014400;28;20464;-40
2023/05/09 09:09:46;;;;;;;8.27;7.40;;;;;;;20.87;46.63;101519.94;5013592;28;20472;-41
2023/05/09 09:12:16;;;;;;;7.00;6.30;;;;;;;20.65;47.77;101518.19;5014519;28;20452;-45
2023/05/09 09:14:48;;;;;;;7.13;6.57;;;;;;;20.92;47.62;101519.19;5012724;28;20452;-42
2023/05/09 09:17:20;;;;;;;7.83;7.10;;;;;;;20.59;48.04;101517.28;5013521;28;20455;-45
2023/05/09 09:19:50;;;;;;;7.37;6.73;;;;;;;20.56;48.09;101517.75;5009462;28;20472;-42
2023/05/09 09:22:19;;;;;;;7.70;6.83;;;;;;;20.84;47.22;101511.47;5014788;28;20436;-43
2023/05/09 09:24:48;;;;;;;7.60;7.10;;;;;;;21.22;47.76;101513.47;5013343;28;20472;-41
2023/05/09 09:27:16;;;;;;;8.27;7.67;;;;;;;21.32;47.33;101502.78;5011710;28;20463;-42
2023/05/09 09:29:44;;;;;;;7.63;7.13;;;;;;;21.48;47.42;101507.34;5012905;28;20456;-45
2023/05/09 09:32:11;;;;;;;7.70;7.20;;;;;;;21.07;47.77;101497.75;5012677;28;20436;-41
2023/05/09 09:34:39;;;;;;;6.90;6.37;;;;;;;21.24;49.00;101504.00;5014005;28;20428;-41
2023/05/09 09:37:07;;;;;;;7.77;7.13;;;;;;;21.33;48.13;101507.13;5013647;28;21037;-41
2023/05/09 09:39:35;;;;;;;7.50;6.90;;;;;;;21.18;48.73;101499.56;5012712;28;20556;-40
2023/05/09 09:42:14;;;;;;;8.17;7.67;;;;;;;21.46;49.28;101498.63;5011877;28;20443;-41
2023/05/09 09:44:41;;;;;;;7.73;7.13;;;;;;;21.64;48.98;101498.34;5012549;28;20929;-44
2023/05/09 09:47:10;;;;;;;7.93;7.17;;;;;;;21.88;49.05;101490.81;5012249;28;20514;-40
2023/05/09 09:49:44;;;;;;;7.40;6.77;;;;;;;21.79;48.34;101484.13;5011754;28;20989;-41
2023/05/09 09:52:22;;;;;;;7.03;6.40;;;;;;;21.66;48.78;101481.78;5012576;28;20432;-40
2023/05/09 09:54:50;;;;;;;7.33;6.70;;;;;;;21.47;48.88;101489.44;5011983;28;20540;-42
2023/05/09 10:00:12;;;;;;;7.00;6.60;;;;;;;21.71;49.34;101476.44;5080029;27;20540;-41
2023/05/09 10:02:51;;;;;;;7.93;7.33;;;;;;;21.56;49.07;101471.66;5069882;28;20453;-43
2023/05/09 10:05:21;;;;;;;7.30;6.77;;;;;;;21.64;49.44;101468.47;5070529;28;20452;-42
2023/05/09 10:07:54;;;;;;;8.60;7.60;;;;;;;22.02;49.18;101467.59;5082683;28;20455;-42
2023/05/09 10:10:24;;;;;;;7.40;6.80;;;;;;;22.15;49.04;101461.78;5093428;28;20472;-41
2023/05/09 10:12:56;;;;;;;7.70;7.20;;;;;;;22.25;48.81;101467.31;5090593;28;20429;-43
2023/05/09 10:15:26;;;;;;;8.10;7.40;;;;;;;22.45;48.74;101466.69;5092559;28;20433;-47
2023/05/09 10:17:59;;;;;;;7.53;6.80;;;;;;;22.16;48.03;101452.53;5089950;28;20966;-41
2023/05/09 10:20:28;;;;;;;7.93;7.23;;;;;;;22.15;48.60;101455.53;5079664;28;20464;-43
2023/05/09 10:22:58;;;;;;;9.23;7.67;;;;;;;22.17;48.43;101461.50;5090483;28;20436;-42
2023/05/09 10:25:32;;;;;;;9.13;8.40;;;;;;;21.99;49.82;101435.53;5089928;28;21023;-41
2023/05/09 10:28:01;;;;;;;8.00;7.50;;;;;;;22.21;49.52;101441.75;5090090;28;20445;-45
2023/05/09 10:30:32;;;;;;;8.43;7.73;;;;;;;22.58;48.83;101426.31;5089497;28;20796;-42
2023/05/09 10:33:04;;;;;;;7.80;7.00;;;;;;;22.48;49.88;101418.09;5089949;28;20429;-40
2023/05/09 10:35:36;;;;;;;9.80;7.50;;;;;;;22.43;50.39;101420.75;5090272;28;20585;-41
2023/05/09 10:38:04;;;;;;;7.70;7.10;;;;;;;22.54;50.39;101418.94;5090693;28;20498;-41
2023/05/09 10:40:32;;;;;;;8.13;7.57;;;;;;;22.64;49.97;101413.56;5089937;28;21068;-43
2023/05/09 10:43:00;;;;;;;8.10;7.57;;;;;;;22.64;50.12;101412.78;5090116;28;21023;-42
2023/05/09 10:45:29;;;;;;;8.40;7.70;;;;;;;22.61;49.83;101405.94;5089435;28;20429;-40
2023/05/09 10:47:58;;;;;;;8.23;7.73;;;;;;;22.68;50.38;101403.03;5092369;28;20488;-40
2023/05/09 10:50:26;;;;;;;7.90;7.30;;;;;;;22.75;49.17;101399.03;5089471;28;20449;-43
2023/05/09 10:53:10;;;;;;;8.10;7.40;;;;;;;22.58;49.07;101392.88;5091909;28;20443;-46
2023/05/09 10:55:39;;;;;;;7.27;6.70;;;;;;;22.56;49.87;101392.31;5089530;28;20461;-40
2023/05/09 10:58:19;;;;;;;8.07;7.50;;;;;;;22.69;50.04;101377.50;5089958;28;20464;-40
2023/05/09 11:00:49;;;;;;;7.70;6.80;;;;;;;22.86;49.52;101378.16;5089865;28;21026;-40
2023/05/09 11:03:18;;;;;;;7.63;7.23;;;;;;;22.84;48.91;101380.31;5090051;28;20463;-43
2023/05/09 11:05:46;;;;;;;7.23;6.73;;;;;;;22.97;49.09;101368.97;5089462;28;20433;-39
2023/05/09 11:08:28;;;;;;;7.43;6.93;;;;;;;22.94;48.68;101359.44;5089798;28;20451;-41
2023/05/09 11:10:56;;;;;;;7.40;6.90;;;;;;;22.95;49.36;101360.25;5079115;28;20540;-47
2023/05/09 11:13:26;;;;;;;7.67;7.03;;;;;;;22.99;47.33;101351.31;5077177;28;20465;-45
2023/05/09 11:16:12;;;;;;;6.83;6.33;;;;;;;23.25;48.23;101351.44;5075782;28;20433;-45
2023/05/09 11:18:53;;;;;;;8.13;7.53;;;;;;;23.32;47.31;101341.13;5075015;28;20453;-41
2023/05/09 11:21:21;;;;;;;7.30;6.80;;;;;;;23.12;46.56;101334.50;5074715;28;20461;-43
2023/05/09 11:23:49;;;;;;;8.47;7.70;;;;;;;22.86;47.63;101332.75;5075207;28;20434;-42
2023/05/09 11:26:23;;;;;;;7.47;6.57;;;;;;;23.43;47.40;101329.22;5074408;28;20438;-41
2023/05/09 11:28:55;;;;;;;6.70;6.30;;;;;;;23.78;47.27;101340.19;5075195;28;20429;-43
2023/05/09 11:31:24;;;;;;;6.90;6.37;;;;;;;23.80;45.89;101323.59;5075607;28;20465;-42
2023/05/09 11:34:02;;;;;;;6.70;6.10;;;;;;;23.29;45.09;101304.38;5077497;28;20426;-39
2023/05/09 11:36:32;;;;;;;7.33;6.83;;;;;;;23.35;45.86;101319.66;5102290;22;20493;-41
2023/05/09 11:39:02;;;;;;;7.30;5.73;;;;;;;23.35;45.08;101311.47;5079566;28;20515;-40
2023/05/09 11:41:30;;;;;;;6.43;5.90;;;;;;;23.28;45.55;101302.72;5078711;28;20454;-44
2023/05/09 11:43:59;;;;;;;7.30;6.83;;;;;;;23.56;44.49;101293.31;5077295;28;20434;-41
2023/05/09 11:46:28;;;;;;;7.20;6.63;;;;;;;23.67;45.20;101303.13;5077816;28;20461;-41
2023/05/09 11:48:56;;;;;;;7.40;6.00;;;;;;;23.53;43.51;101296.59;5078285;28;20495;-42
2023/05/09 11:51:25;;;;;;;6.10;5.70;;;;;;;23.77;44.50;101289.56;5078659;28;20545;-42
2023/05/09 11:53:53;;;;;;;6.90;6.50;;;;;;;23.50;44.19;101284.34;5078172;28;20480;-39
2023/05/09 11:56:22;;;;;;;7.20;6.80;;;;;;;23.69;43.57;101288.16;5077639;28;20456;-42